Time;durP1;ratioP1;P1;durP2;ratioP2;P2;SDS_P1;SDS_P2;PMS_P1;PMS_P2;Temp;Humidity;BMP_temperature;BMP_pressure;BME280_temperature;BME280_humidity;BME280_pressure;Samples;Min_cycle;Max_cycle;Signal;HPM_P1;HPM_P2
2022/10/23 00:00:57;;;;;;;33.22;19.20;;;11.40;99.90;;;;;;5134948;27;20045;-68
2022/10/23 00:03:23;;;;;;;35.30;18.13;;;11.40;99.90;;;;;;5134763;27;20034;-68
2022/10/23 00:05:49;;;;;;;33.80;18.52;;;11.40;99.90;;;;;;5153381;27;20095;-68
2022/10/23 00:08:15;;;;;;;38.53;18.95;;;11.40;99.90;;;;;;5134818;27;20125;-68
2022/10/23 00:10:41;;;;;;;29.42;17.15;;;11.40;99.90;;;;;;5153429;27;20061;-68
2022/10/23 00:13:08;;;;;;;39.05;18.67;;;11.40;99.90;;;;;;5151244;27;20510;-67
2022/10/23 00:15:35;;;;;;;32.58;18.55;;;11.40;99.90;;;;;;5134841;27;20039;-67
2022/10/23 00:18:01;;;;;;;36.10;18.60;;;11.40;99.90;;;;;;5153273;27;20042;-67
2022/10/23 00:20:27;;;;;;;38.45;19.02;;;11.40;99.90;;;;;;5153391;27;20037;-67
2022/10/23 00:22:53;;;;;;;36.75;18.48;;;11.40;99.90;;;;;;5153235;27;20031;-68
2022/10/23 00:25:19;;;;;;;40.10;18.73;;;11.50;99.90;;;;;;5134613;27;20111;-67
2022/10/23 00:27:45;;;;;;;36.45;18.35;;;11.50;99.90;;;;;;5134595;27;20118;-67
2022/10/23 00:30:11;;;;;;;32.75;17.13;;;11.40;99.90;;;;;;5153156;27;20075;-67
2022/10/23 00:32:37;;;;;;;31.13;17.90;;;11.40;99.90;;;;;;5134895;27;20368;-67
2022/10/23 00:35:04;;;;;;;36.35;17.67;;;11.40;99.90;;;;;;5153222;27;20043;-67
2022/10/23 00:37:30;;;;;;;35.13;18.88;;;11.40;99.90;;;;;;5117492;27;20130;-67
2022/10/23 00:39:55;;;;;;;33.08;18.98;;;11.40;99.90;;;;;;5117365;27;20187;-67
2022/10/23 00:42:21;;;;;;;33.05;17.45;;;11.30;99.90;;;;;;5150435;27;20051;-67
2022/10/23 00:44:50;;;;;;;30.95;19.65;;;11.30;99.90;;;;;;5134514;27;20046;-67
2022/10/23 00:47:16;;;;;;;37.03;18.95;;;11.30;99.90;;;;;;5134644;27;20047;-67
2022/10/23 00:49:42;;;;;;;35.92;19.10;;;11.30;99.90;;;;;;5153166;27;20053;-67
2022/10/23 00:52:10;;;;;;;34.20;18.45;;;11.20;99.90;;;;;;5153114;27;20129;-67
2022/10/23 00:54:41;;;;;;;35.85;20.38;;;11.20;99.90;;;;;;5134441;27;20064;-67
2022/10/23 00:57:11;;;;;;;31.60;18.02;;;11.20;99.90;;;;;;5137868;27;20027;-67
2022/10/23 00:59:37;;;;;;;33.83;18.35;;;11.20;99.90;;;;;;5138132;27;20110;-66
2022/10/23 01:02:04;;;;;;;44.78;21.17;;;11.10;99.90;;;;;;5138121;27;20494;-67
2022/10/23 01:04:31;;;;;;;40.35;18.92;;;11.10;99.90;;;;;;5156607;27;20039;-66
2022/10/23 01:07:06;;;;;;;34.28;19.08;;;11.10;99.90;;;;;;5138243;27;20211;-67
2022/10/23 01:09:53;;;;;;;47.92;21.95;;;11.10;99.90;;;;;;5156440;27;20507;-67
2022/10/23 01:12:36;;;;;;;39.03;19.88;;;11.10;99.90;;;;;;5135451;27;20122;-67
2022/10/23 01:15:04;;;;;;;36.35;20.20;;;11.10;99.90;;;;;;5137901;27;20464;-67
2022/10/23 01:17:47;;;;;;;37.17;20.75;;;11.00;99.90;;;;;;5156435;27;20035;-67
2022/10/23 01:20:41;;;;;;;33.03;19.23;;;11.00;99.90;;;;;;5138126;27;20118;-67
2022/10/23 01:23:25;;;;;;;33.25;18.67;;;11.00;99.90;;;;;;5137687;27;20038;-67
2022/10/23 01:26:10;;;;;;;30.88;18.50;;;11.00;99.90;;;;;;5156918;27;20042;-67
2022/10/23 01:29:02;;;;;;;35.92;20.63;;;11.00;99.90;;;;;;5138579;27;20045;-67
2022/10/23 01:31:55;;;;;;;38.75;20.25;;;10.90;99.90;;;;;;5138379;27;20039;-67
2022/10/23 01:34:37;;;;;;;38.60;21.25;;;10.90;99.90;;;;;;5138102;27;20062;-67
2022/10/23 01:37:05;;;;;;;39.30;21.80;;;10.90;99.90;;;;;;5138567;27;20050;-67
2022/10/23 01:39:39;;;;;;;39.72;20.95;;;10.90;99.90;;;;;;5121365;27;20043;-68
2022/10/23 01:42:12;;;;;;;55.40;23.48;;;10.90;99.90;;;;;;5154554;27;20114;-68
2022/10/23 01:44:58;;;;;;;41.78;20.77;;;10.80;99.90;;;;;;5138419;27;20428;-67
2022/10/23 01:47:27;;;;;;;35.30;19.27;;;10.80;99.90;;;;;;5120961;27;20117;-67
2022/10/23 01:49:56;;;;;;;33.03;18.25;;;10.70;99.90;;;;;;5156827;27;20027;-67
2022/10/23 01:52:22;;;;;;;36.58;18.23;;;10.70;99.90;;;;;;5120892;27;20050;-67
2022/10/23 01:54:50;;;;;;;34.25;18.63;;;10.60;99.90;;;;;;5156603;27;20031;-66
2022/10/23 01:57:19;;;;;;;47.97;21.42;;;10.60;99.90;;;;;;5138022;27;20099;-66
2022/10/23 01:59:56;;;;;;;39.60;20.60;;;10.60;99.90;;;;;;5137799;27;20649;-68
2022/10/23 02:02:25;;;;;;;52.90;23.58;;;10.60;99.90;;;;;;5156447;27;20117;-66
2022/10/23 02:05:13;;;;;;;43.75;22.48;;;10.50;99.90;;;;;;5137772;27;20074;-66
2022/10/23 02:07:39;;;;;;;39.03;20.30;;;10.50;99.90;;;;;;5137336;27;20046;-66
2022/10/23 02:10:07;;;;;;;48.70;21.83;;;10.50;99.90;;;;;;5137719;27;20608;-67
2022/10/23 02:12:53;;;;;;;43.00;20.63;;;10.60;99.90;;;;;;5118175;27;20034;-67
2022/10/23 02:15:24;;;;;;;42.75;21.23;;;10.50;99.90;;;;;;5138122;27;20034;-67
2022/10/23 02:17:59;;;;;;;43.88;22.63;;;10.50;99.90;;;;;;5120759;27;20057;-67
2022/10/23 02:20:52;;;;;;;41.17;21.75;;;10.60;99.90;;;;;;5137391;27;20126;-67
2022/10/23 02:23:21;;;;;;;43.65;21.50;;;10.60;99.90;;;;;;5136650;27;20054;-67
2022/10/23 02:26:00;;;;;;;40.17;20.55;;;10.60;99.90;;;;;;5120464;27;20035;-67
2022/10/23 02:28:37;;;;;;;40.08;20.40;;;10.60;99.90;;;;;;5137571;27;20026;-67
2022/10/23 02:31:07;;;;;;;35.15;19.23;;;10.60;99.90;;;;;;5137266;27;20164;-67
2022/10/23 02:33:34;;;;;;;41.65;20.20;;;10.60;99.90;;;;;;5137356;27;20121;-67
2022/10/23 02:36:01;;;;;;;33.22;19.52;;;10.60;99.90;;;;;;5155672;27;20058;-67
2022/10/23 02:38:41;;;;;;;31.08;18.92;;;10.60;99.90;;;;;;5155713;27;20138;-67
2022/10/23 02:41:34;;;;;;;32.60;18.48;;;10.70;99.90;;;;;;5119866;27;20069;-67
2022/10/23 02:44:27;;;;;;;36.78;19.98;;;10.70;99.90;;;;;;5153380;27;20378;-67
2022/10/23 02:47:08;;;;;;;36.70;18.88;;;10.70;99.90;;;;;;5155578;27;20375;-67
2022/10/23 02:49:41;;;;;;;36.42;19.27;;;10.70;99.90;;;;;;5136845;27;20509;-67
2022/10/23 02:52:41;;;;;;;35.88;19.27;;;10.70;99.90;;;;;;5136822;27;20038;-66
2022/10/23 02:55:19;;;;;;;38.10;19.08;;;10.80;99.90;;;;;;5136798;27;20042;-66
2022/10/23 02:58:08;;;;;;;33.28;18.65;;;10.80;99.90;;;;;;5136626;27;20156;-66
2022/10/23 03:00:36;;;;;;;27.98;17.83;;;10.70;99.90;;;;;;5137055;27;20039;-67
2022/10/23 03:03:09;;;;;;;31.58;18.13;;;10.80;99.90;;;;;;5119423;27;20075;-67
2022/10/23 03:05:39;;;;;;;38.22;18.48;;;10.80;99.90;;;;;;5155171;27;20428;-67
2022/10/23 03:08:07;;;;;;;;;;;10.80;99.90;;;;;;5137300;27;20069;-66
2022/10/23 03:10:33;;;;;;;28.45;17.25;;;10.80;99.90;;;;;;5136567;27;19923;-67
2022/10/23 03:12:59;;;;;;;33.60;17.42;;;10.80;99.90;;;;;;5134243;27;20397;-67
2022/10/23 03:15:24;;;;;;;33.53;17.95;;;10.90;99.90;;;;;;5119286;27;20045;-67
2022/10/23 03:17:50;;;;;;;32.17;17.45;;;10.90;99.90;;;;;;5155072;27;20074;-66
2022/10/23 03:20:17;;;;;;;29.75;18.77;;;10.90;99.90;;;;;;5135642;27;20121;-66
2022/10/23 03:22:42;;;;;;;36.13;20.42;;;10.90;99.90;;;;;;5136211;27;20045;-66
2022/10/23 03:25:09;;;;;;;31.80;19.00;;;11.00;99.90;;;;;;5154658;27;20043;-66
2022/10/23 03:27:35;;;;;;;28.70;17.75;;;11.00;99.90;;;;;;5154973;27;20033;-66
2022/10/23 03:30:02;;;;;;;28.90;19.02;;;11.00;99.90;;;;;;5154889;27;20461;-66
2022/10/23 03:32:28;;;;;;;31.08;18.02;;;11.00;99.90;;;;;;5154829;27;20379;-66
2022/10/23 03:34:54;;;;;;;30.83;18.63;;;11.00;99.90;;;;;;5154644;27;20053;-66
2022/10/23 03:37:20;;;;;;;34.00;18.35;;;11.00;99.90;;;;;;5136034;27;20085;-66
2022/10/23 03:39:46;;;;;;;28.73;19.08;;;11.00;99.90;;;;;;5135991;27;20038;-69
2022/10/23 03:42:11;;;;;;;29.90;18.00;;;11.00;99.90;;;;;;5152639;27;20106;-64
2022/10/23 03:44:37;;;;;;;27.95;17.67;;;11.00;99.90;;;;;;5136173;27;20046;-66
2022/10/23 03:47:04;;;;;;;29.17;18.65;;;11.00;99.90;;;;;;5136294;27;20047;-66
2022/10/23 03:49:30;;;;;;;32.10;17.92;;;10.90;99.90;;;;;;5136375;27;20035;-65
2022/10/23 03:51:57;;;;;;;30.08;19.20;;;10.90;99.90;;;;;;5154786;27;20370;-65
2022/10/23 03:54:25;;;;;;;29.30;18.10;;;10.90;99.90;;;;;;5136521;27;20802;-65
2022/10/23 03:56:51;;;;;;;34.22;18.45;;;10.90;99.90;;;;;;5136556;27;20038;-65
2022/10/23 03:59:17;;;;;;;27.33;17.67;;;10.80;99.90;;;;;;5154811;27;20042;-65
2022/10/23 04:01:44;;;;;;;33.20;19.38;;;10.80;99.90;;;;;;5154877;27;20050;-65
2022/10/23 04:04:10;;;;;;;33.67;19.65;;;10.70;99.90;;;;;;5154667;27;20467;-65
2022/10/23 04:06:36;;;;;;;29.45;17.73;;;10.70;99.90;;;;;;5136053;27;20043;-65
2022/10/23 04:09:03;;;;;;;22.50;16.38;;;10.70;99.90;;;;;;5136344;27;20047;-66
2022/10/23 04:11:28;;;;;;;30.83;17.95;;;10.70;99.90;;;;;;5154944;27;20035;-65
2022/10/23 04:13:54;;;;;;;27.75;18.77;;;10.60;99.90;;;;;;5133845;27;20376;-66
2022/10/23 04:16:20;;;;;;;41.45;21.15;;;10.60;99.90;;;;;;5154530;27;20039;-65
2022/10/23 04:18:46;;;;;;;32.17;18.02;;;10.60;99.90;;;;;;5136038;27;20050;-66
2022/10/23 04:21:11;;;;;;;34.08;19.35;;;10.60;99.90;;;;;;5136135;27;20045;-66
2022/10/23 04:23:37;;;;;;;33.50;19.83;;;10.50;99.90;;;;;;5118658;27;20046;-65
2022/10/23 04:26:03;;;;;;;40.00;20.25;;;10.50;99.90;;;;;;5135962;27;20103;-65
2022/10/23 04:28:31;;;;;;;48.55;21.88;;;10.50;99.90;;;;;;5135797;27;20043;-64
2022/10/23 04:30:56;;;;;;;53.08;23.75;;;10.50;99.90;;;;;;5137579;27;20051;-65
2022/10/23 04:33:22;;;;;;;40.08;22.13;;;10.50;99.90;;;;;;5158400;27;20038;-65
2022/10/23 04:35:50;;;;;;;38.58;23.00;;;10.40;99.90;;;;;;5139808;27;20103;-65
2022/10/23 04:38:16;;;;;;;32.90;21.65;;;10.40;99.90;;;;;;5122740;27;20054;-66
2022/10/23 04:40:41;;;;;;;36.42;20.60;;;10.40;99.90;;;;;;5158281;27;20046;-65
2022/10/23 04:43:07;;;;;;;45.70;22.40;;;10.40;99.90;;;;;;5137150;27;20474;-65
2022/10/23 04:45:33;;;;;;;37.55;21.63;;;10.40;99.90;;;;;;5139457;27;20122;-65
2022/10/23 04:47:59;;;;;;;43.97;23.80;;;10.40;99.90;;;;;;5139304;27;20035;-65
2022/10/23 04:50:24;;;;;;;46.35;23.45;;;10.40;99.90;;;;;;5139252;27;20106;-65
2022/10/23 04:52:54;;;;;;;46.60;24.15;;;10.40;99.90;;;;;;5139367;27;20091;-65
2022/10/23 04:55:20;;;;;;;41.80;22.50;;;10.40;99.90;;;;;;5157715;27;20463;-65
2022/10/23 04:57:46;;;;;;;42.67;24.10;;;10.40;99.90;;;;;;5139068;27;20046;-65
2022/10/23 05:00:14;;;;;;;40.63;24.20;;;10.40;99.90;;;;;;5157618;27;20054;-66
2022/10/23 05:02:40;;;;;;;37.85;23.95;;;10.40;99.90;;;;;;5138898;27;20038;-66
2022/10/23 05:05:07;;;;;;;53.50;27.23;;;10.40;99.90;;;;;;5139034;27;20047;-66
2022/10/23 05:07:34;;;;;;;46.72;25.67;;;10.40;99.90;;;;;;5157689;27;20049;-66
2022/10/23 05:10:02;;;;;;;43.58;25.08;;;10.40;99.90;;;;;;5138848;27;20046;-65
2022/10/23 05:12:28;;;;;;;42.88;25.20;;;10.40;99.90;;;;;;5136613;27;20042;-65
2022/10/23 05:14:54;;;;;;;44.13;24.58;;;10.40;99.90;;;;;;5121525;27;20043;-65
2022/10/23 05:17:34;;;;;;;45.33;26.48;;;10.40;99.90;;;;;;5121535;27;20041;-65
2022/10/23 05:20:04;;;;;;;40.90;24.35;;;10.40;99.90;;;;;;5121946;27;20057;-65
2022/10/23 05:22:32;;;;;;;48.05;25.25;;;10.40;99.90;;;;;;5138707;27;20039;-65
2022/10/23 05:25:00;;;;;;;45.50;24.33;;;10.40;99.90;;;;;;5157277;27;20348;-65
2022/10/23 05:27:26;;;;;;;42.10;24.10;;;10.40;99.90;;;;;;5157168;27;20103;-65
2022/10/23 05:29:52;;;;;;;46.28;25.75;;;10.40;99.90;;;;;;5157251;27;20051;-67
2022/10/23 05:32:18;;;;;;;42.92;24.25;;;10.40;99.90;;;;;;5157028;27;20058;-66
2022/10/23 05:34:44;;;;;;;43.83;24.42;;;10.40;99.90;;;;;;5156735;27;20051;-66
2022/10/23 05:37:14;;;;;;;48.53;24.92;;;10.40;99.90;;;;;;5156965;27;20126;-66
2022/10/23 05:39:40;;;;;;;33.80;19.75;;;10.50;99.90;;;;;;5156993;27;20061;-66
2022/10/23 05:42:05;;;;;;;41.38;23.15;;;10.50;99.90;;;;;;5135694;27;20125;-66
2022/10/23 05:44:31;;;;;;;46.65;26.25;;;10.50;99.90;;;;;;5156407;27;20091;-66
2022/10/23 05:46:57;;;;;;;45.80;24.17;;;10.60;99.90;;;;;;5138276;27;20038;-66
2022/10/23 05:49:24;;;;;;;41.25;24.27;;;10.60;99.90;;;;;;5138124;27;20437;-66
2022/10/23 05:51:50;;;;;;;43.47;24.48;;;10.60;99.90;;;;;;5156844;27;20516;-66
2022/10/23 05:54:17;;;;;;;47.78;26.80;;;10.60;99.90;;;;;;5138272;27;20045;-65
2022/10/23 05:56:43;;;;;;;44.00;23.92;;;10.60;99.90;;;;;;5120820;27;20122;-65
2022/10/23 05:59:09;;;;;;;42.35;23.83;;;10.60;99.90;;;;;;5156467;27;20168;-65
2022/10/23 06:01:36;;;;;;;45.38;24.50;;;10.70;99.90;;;;;;5156366;27;20391;-65
2022/10/23 06:04:03;;;;;;;51.38;25.42;;;10.70;99.90;;;;;;5156206;27;20035;-65
2022/10/23 06:06:29;;;;;;;42.60;23.30;;;10.70;99.90;;;;;;5156443;27;20164;-66
2022/10/23 06:08:55;;;;;;;44.92;24.42;;;10.70;99.90;;;;;;5137847;27;20035;-65
2022/10/23 06:11:21;;;;;;;39.55;24.23;;;10.70;99.90;;;;;;5156446;27;20038;-65
2022/10/23 06:13:49;;;;;;;43.22;23.83;;;10.70;99.90;;;;;;5118596;27;20034;-66
2022/10/23 06:16:18;;;;;;;41.33;23.73;;;10.80;99.90;;;;;;5120802;27;20130;-66
2022/10/23 06:18:44;;;;;;;45.63;22.75;;;10.80;99.90;;;;;;5156389;27;20038;-66
2022/10/23 06:21:11;;;;;;;47.45;24.02;;;10.80;99.90;;;;;;5137519;27;20039;-66
2022/10/23 06:23:38;;;;;;;41.63;23.33;;;10.80;99.90;;;;;;5137433;27;20038;-66
2022/10/23 06:26:05;;;;;;;37.78;23.17;;;10.80;99.90;;;;;;5137647;27;20043;-66
2022/10/23 06:28:31;;;;;;;43.80;24.52;;;10.90;99.90;;;;;;5137334;27;20039;-66
2022/10/23 06:30:57;;;;;;;44.03;24.33;;;10.90;99.90;;;;;;5137620;27;20041;-66
2022/10/23 06:33:23;;;;;;;38.63;22.73;;;10.90;99.90;;;;;;5156154;27;20049;-66
2022/10/23 06:35:49;;;;;;;37.42;23.55;;;10.90;99.90;;;;;;5134217;27;20431;-66
2022/10/23 06:38:14;;;;;;;47.55;23.27;;;10.90;99.90;;;;;;5133960;27;20125;-66
2022/10/23 06:40:40;;;;;;;40.60;21.83;;;10.90;99.90;;;;;;5133772;27;20051;-66
2022/10/23 06:43:07;;;;;;;35.40;21.55;;;11.00;99.90;;;;;;5131543;27;20023;-66
2022/10/23 06:45:33;;;;;;;36.00;21.10;;;10.90;99.90;;;;;;5134886;27;20092;-66
2022/10/23 06:47:59;;;;;;;38.15;22.48;;;11.00;99.90;;;;;;5133928;27;20031;-66
2022/10/23 06:50:26;;;;;;;34.50;21.35;;;11.00;99.90;;;;;;5135017;27;20422;-66
2022/10/23 06:52:53;;;;;;;39.22;22.30;;;11.00;99.90;;;;;;5134852;27;20438;-66
2022/10/23 06:55:19;;;;;;;36.78;20.90;;;11.10;99.90;;;;;;5133627;27;20035;-66
2022/10/23 06:57:45;;;;;;;35.50;19.88;;;11.10;99.90;;;;;;5133387;27;20046;-66
2022/10/23 07:00:11;;;;;;;33.28;19.67;;;11.10;99.90;;;;;;5134905;27;20042;-65
2022/10/23 07:02:37;;;;;;;35.85;19.15;;;11.20;99.90;;;;;;5133238;27;20035;-66
2022/10/23 07:05:03;;;;;;;35.35;20.50;;;11.20;99.90;;;;;;5133279;27;20047;-65
2022/10/23 07:07:29;;;;;;;31.75;19.95;;;11.20;99.90;;;;;;5134282;27;20035;-65
2022/10/23 07:09:55;;;;;;;31.08;20.08;;;11.20;99.90;;;;;;5134380;27;20087;-65
2022/10/23 07:12:21;;;;;;;31.63;20.48;;;11.30;99.90;;;;;;5132043;27;20046;-65
2022/10/23 07:14:47;;;;;;;30.92;18.92;;;11.30;99.90;;;;;;5134609;27;20092;-65
2022/10/23 07:17:13;;;;;;;27.20;18.08;;;11.30;99.90;;;;;;5134238;27;20043;-66
2022/10/23 07:19:39;;;;;;;31.13;18.77;;;11.40;99.90;;;;;;5116096;27;20054;-66
2022/10/23 07:22:05;;;;;;;30.83;18.75;;;11.40;99.90;;;;;;5133090;27;20043;-66
2022/10/23 07:24:35;;;;;;;29.90;17.88;;;11.40;99.90;;;;;;5132830;27;20091;-66
2022/10/23 07:27:02;;;;;;;;;;;11.40;99.90;;;;;;5134528;27;20071;-66
2022/10/23 07:29:28;;;;;;;29.67;17.23;;;11.40;99.90;;;;;;5133095;27;19923;-66
2022/10/23 07:31:53;;;;;;;28.85;17.45;;;11.50;99.90;;;;;;5133108;27;20027;-66
2022/10/23 07:34:19;;;;;;;25.85;16.05;;;11.50;99.90;;;;;;5135708;27;20054;-66
2022/10/23 07:36:45;;;;;;;25.75;16.42;;;11.60;99.90;;;;;;5154734;27;20168;-66
2022/10/23 07:39:11;;;;;;;26.13;16.25;;;11.60;99.90;;;;;;5136069;27;20039;-67
2022/10/23 07:41:36;;;;;;;19.65;14.82;;;11.70;99.90;;;;;;5118912;27;20121;-66
2022/10/23 07:44:03;;;;;;;24.17;15.35;;;11.70;99.90;;;;;;5133844;27;20118;-66
2022/10/23 07:46:28;;;;;;;23.33;15.07;;;11.70;99.90;;;;;;5154722;27;20061;-66
2022/10/23 07:48:54;;;;;;;26.58;15.68;;;11.80;99.90;;;;;;5136371;27;20046;-66
2022/10/23 07:51:20;;;;;;;26.55;15.15;;;11.80;99.90;;;;;;5136009;27;20478;-66
2022/10/23 07:53:46;;;;;;;22.13;14.93;;;11.80;99.90;;;;;;5153271;27;20042;-67
2022/10/23 07:56:16;;;;;;;25.30;14.38;;;11.90;99.90;;;;;;5154218;27;20038;-67
2022/10/23 07:58:42;;;;;;;26.60;14.68;;;11.90;99.90;;;;;;5135780;27;20054;-66
2022/10/23 08:01:19;;;;;;;25.55;15.35;;;11.90;99.90;;;;;;5136000;27;20456;-67
2022/10/23 08:03:45;;;;;;;23.02;14.73;;;12.00;99.90;;;;;;5118481;27;20045;-67
2022/10/23 08:06:11;;;;;;;21.85;14.40;;;12.00;99.90;;;;;;5138082;27;20045;-67
2022/10/23 08:08:37;;;;;;;22.58;14.35;;;12.10;99.90;;;;;;5139964;27;20030;-66
2022/10/23 08:11:03;;;;;;;25.58;15.93;;;12.20;99.90;;;;;;5140207;27;20070;-67
2022/10/23 08:13:28;;;;;;;21.10;13.23;;;12.20;99.90;;;;;;5157226;27;20038;-67
2022/10/23 08:15:55;;;;;;;20.95;14.25;;;12.30;99.90;;;;;;5140033;27;20038;-67
2022/10/23 08:18:21;;;;;;;19.02;13.15;;;12.30;99.90;;;;;;5139991;27;20046;-66
2022/10/23 08:20:47;;;;;;;21.52;13.65;;;12.40;99.90;;;;;;5158495;27;20054;-67
2022/10/23 08:23:17;;;;;;;22.27;13.70;;;12.50;99.90;;;;;;5140220;27;20031;-67
2022/10/23 08:25:43;;;;;;;23.25;13.07;;;12.50;99.90;;;;;;5158801;27;20588;-67
2022/10/23 08:28:09;;;;;;;20.40;13.25;;;12.60;99.90;;;;;;5140586;27;20087;-67
2022/10/23 08:30:36;;;;;;;19.88;11.73;;;12.60;99.90;;;;;;5139862;27;20041;-66
2022/10/23 08:33:03;;;;;;;19.35;12.52;;;12.70;99.90;;;;;;5140245;27;20245;-67
2022/10/23 08:35:29;;;;;;;24.05;11.82;;;12.70;99.90;;;;;;5140020;27;20054;-67
2022/10/23 08:37:55;;;;;;;19.98;12.20;;;12.70;99.90;;;;;;5123065;27;20133;-66
2022/10/23 08:40:24;;;;;;;16.83;11.85;;;12.80;99.90;;;;;;5158450;27;20493;-67
2022/10/23 08:42:58;;;;;;;19.37;10.73;;;12.80;99.90;;;;;;5137949;27;20065;-67
2022/10/23 08:45:44;;;;;;;17.30;10.93;;;12.90;99.90;;;;;;5140264;27;20114;-69
2022/10/23 08:48:36;;;;;;;16.15;10.90;;;12.90;99.90;;;;;;5158623;27;20063;-67
2022/10/23 08:51:36;;;;;;;22.00;10.77;;;13.00;99.90;;;;;;5159164;27;20038;-68
2022/10/23 08:54:15;;;;;;;16.55;10.75;;;13.20;99.90;;;;;;5153513;27;20051;-68
2022/10/23 08:56:45;;;;;;;22.08;11.23;;;13.30;99.90;;;;;;5141512;27;20390;-68
2022/10/23 08:59:42;;;;;;;17.23;9.55;;;13.40;99.90;;;;;;5139800;27;20043;-67
2022/10/23 09:02:23;;;;;;;16.73;9.27;;;13.60;99.90;;;;;;5157073;27;20042;-67
2022/10/23 09:04:52;;;;;;;15.23;9.55;;;13.70;99.90;;;;;;5122342;27;20045;-67
2022/10/23 09:07:31;;;;;;;18.55;9.23;;;13.80;99.90;;;;;;5139355;27;20042;-67
2022/10/23 09:10:14;;;;;;;17.73;9.68;;;13.90;99.90;;;;;;5157675;27;20046;-68
2022/10/23 09:12:41;;;;;;;15.20;9.40;;;13.90;99.90;;;;;;5136859;27;20039;-68
2022/10/23 09:15:22;;;;;;;13.77;8.98;;;14.00;99.90;;;;;;5157380;27;20378;-67
2022/10/23 09:17:53;;;;;;;13.30;9.60;;;14.00;99.90;;;;;;5137654;27;20038;-67
2022/10/23 09:20:23;;;;;;;17.45;9.27;;;14.00;99.90;;;;;;5157329;27;20034;-67
2022/10/23 09:23:18;;;;;;;16.80;9.30;;;14.00;99.90;;;;;;5138603;27;20501;-68
2022/10/23 09:25:46;;;;;;;15.52;9.20;;;14.00;99.90;;;;;;5152240;27;20051;-68
2022/10/23 09:28:21;;;;;;;15.70;9.57;;;14.10;99.90;;;;;;5140646;27;20031;-68
2022/10/23 09:30:47;;;;;;;12.70;9.00;;;14.10;99.90;;;;;;5140893;27;20081;-67
2022/10/23 09:33:22;;;;;;;16.55;9.60;;;14.10;99.90;;;;;;5159187;27;20043;-67
2022/10/23 09:35:54;;;;;;;14.82;9.40;;;14.10;99.90;;;;;;5137233;27;20055;-68
2022/10/23 09:38:30;;;;;;;11.85;8.77;;;14.20;99.90;;;;;;5138110;27;20395;-68
2022/10/23 09:41:05;;;;;;;14.15;9.23;;;14.20;99.90;;;;;;5119823;27;20050;-68
2022/10/23 09:43:31;;;;;;;13.32;9.27;;;14.10;99.90;;;;;;5134862;27;20043;-68
2022/10/23 09:46:00;;;;;;;14.80;9.38;;;14.20;99.90;;;;;;5136150;27;20080;-69
2022/10/23 09:48:26;;;;;;;15.02;8.85;;;14.20;99.90;;;;;;5137100;27;20062;-69
2022/10/23 09:50:53;;;;;;;15.00;9.20;;;14.20;99.90;;;;;;5138284;27;20043;-69
2022/10/23 09:53:33;;;;;;;14.82;8.43;;;14.20;99.90;;;;;;5137952;27;20131;-68
2022/10/23 09:56:27;;;;;;;13.68;9.02;;;14.20;99.90;;;;;;5137616;27;20053;-68
2022/10/23 09:58:59;;;;;;;12.80;8.20;;;14.30;99.90;;;;;;5127989;27;20058;-69
2022/10/23 10:01:35;;;;;;;12.93;8.73;;;14.30;99.90;;;;;;5137665;27;20050;-69
2022/10/23 10:04:00;;;;;;;13.57;8.45;;;14.30;99.90;;;;;;5120182;27;20121;-70
2022/10/23 10:06:32;;;;;;;13.10;8.32;;;14.40;99.90;;;;;;5138749;27;20507;-68
2022/10/23 10:09:15;;;;;;;13.10;8.25;;;14.50;99.90;;;;;;5139040;27;20118;-69
2022/10/23 10:11:49;;;;;;;14.95;8.52;;;14.50;99.90;;;;;;5138488;27;20035;-68
2022/10/23 10:14:46;;;;;;;13.23;7.97;;;14.50;99.90;;;;;;5117908;27;20046;-70
2022/10/23 10:17:42;;;;;;;13.25;8.45;;;14.60;99.90;;;;;;5120027;27;20134;-69
2022/10/23 10:20:58;;;;;;;14.88;8.02;;;14.70;99.90;;;;;;5090666;28;20138;-69
2022/10/23 10:23:44;;;;;;;17.20;8.20;;;14.70;99.90;;;;;;5054610;28;20493;-69
2022/10/23 10:26:22;;;;;;;11.77;7.75;;;14.80;99.90;;;;;;5112577;28;20055;-70
2022/10/23 10:29:22;;;;;;;10.50;7.22;;;14.80;99.90;;;;;;5115779;28;20486;-71
2022/10/23 10:31:57;;;;;;;11.80;6.93;;;14.90;99.90;;;;;;5132432;27;20131;-70
2022/10/23 10:34:31;;;;;;;9.15;6.47;;;14.90;99.90;;;;;;5137388;27;20047;-70
2022/10/23 10:37:33;;;;;;;11.68;7.47;;;14.90;99.90;;;;;;5138623;27;20096;-69
2022/10/23 10:40:36;;;;;;;11.30;7.30;;;14.90;99.90;;;;;;5137320;27;20054;-70
2022/10/23 10:43:08;;;;;;;9.73;6.70;;;14.90;99.90;;;;;;5117803;27;20122;-71
2022/10/23 10:46:08;;;;;;;14.23;6.53;;;15.00;99.90;;;;;;5138163;27;20047;-69
2022/10/23 10:48:40;;;;;;;13.55;7.10;;;15.00;99.90;;;;;;5122980;27;20126;-70
2022/10/23 10:51:16;;;;;;;9.65;6.35;;;15.00;99.90;;;;;;5137101;27;20493;-70
2022/10/23 10:53:58;;;;;;;13.00;6.53;;;15.00;99.90;;;;;;5137111;27;20219;-71
2022/10/23 10:56:28;;;;;;;10.07;6.43;;;15.00;99.90;;;;;;5138355;27;20130;-70
2022/10/23 10:59:09;;;;;;;9.60;7.18;;;15.00;99.90;;;;;;5136820;27;20047;-70
2022/10/23 11:01:50;;;;;;;14.20;6.60;;;15.00;99.90;;;;;;5137835;27;20039;-69
2022/10/23 11:04:31;;;;;;;12.10;6.22;;;15.00;99.90;;;;;;5136423;27;20043;-70
2022/10/23 11:06:58;;;;;;;10.45;5.90;;;15.00;99.90;;;;;;5138058;27;20047;-69
2022/10/23 11:09:27;;;;;;;10.07;5.80;;;15.00;99.90;;;;;;5120033;27;20050;-69
2022/10/23 11:11:52;;;;;;;10.70;6.10;;;15.00;99.90;;;;;;5138411;27;20039;-71
2022/10/23 11:14:24;;;;;;;9.20;5.68;;;15.00;99.90;;;;;;5134802;27;20098;-71
2022/10/23 11:16:56;;;;;;;11.63;5.70;;;15.00;99.90;;;;;;5136894;27;20039;-70
2022/10/23 11:19:25;;;;;;;7.68;5.25;;;15.00;99.90;;;;;;5137042;27;20129;-70
2022/10/23 11:22:16;;;;;;;10.27;6.15;;;15.00;99.90;;;;;;5136646;27;20062;-70
2022/10/23 11:25:24;;;;;;;10.88;5.38;;;15.00;99.90;;;;;;5137081;27;20514;-69
2022/10/23 11:28:08;;;;;;;10.75;5.40;;;14.90;99.90;;;;;;5084229;27;20108;-70
2022/10/23 11:30:39;;;;;;;9.68;5.03;;;14.90;99.90;;;;;;5134215;27;20118;-70
2022/10/23 11:33:24;;;;;;;7.50;5.18;;;14.90;99.90;;;;;;5119022;27;20482;-69
2022/10/23 11:40:02;;;;;;;12.82;5.68;;;14.90;99.90;;;;;;5148558;27;20058;-68
2022/10/23 11:42:40;;;;;;;10.65;5.38;;;15.00;99.90;;;;;;5152606;27;20038;-69
2022/10/23 11:45:30;;;;;;;12.35;5.63;;;15.00;99.90;;;;;;5136104;27;20098;-69
2022/10/23 11:48:22;;;;;;;8.23;5.32;;;15.00;99.90;;;;;;5153040;27;20035;-69
2022/10/23 11:50:53;;;;;;;11.30;5.68;;;15.00;99.90;;;;;;5153662;27;20035;-68
2022/10/23 11:53:49;;;;;;;8.57;5.00;;;15.00;99.90;;;;;;5154646;27;20053;-70
2022/10/23 11:56:14;;;;;;;12.10;5.28;;;15.10;99.90;;;;;;5136826;27;20065;-69
2022/10/23 11:58:47;;;;;;;8.45;4.43;;;15.10;99.90;;;;;;5153239;27;20035;-70
2022/10/23 12:01:28;;;;;;;8.40;4.63;;;15.10;99.90;;;;;;5153559;27;20103;-70
2022/10/23 12:04:02;;;;;;;9.57;4.47;;;15.10;99.90;;;;;;5135828;27;20121;-69
2022/10/23 12:07:00;;;;;;;6.53;4.13;;;15.20;99.90;;;;;;5153336;27;20517;-69
2022/10/23 12:09:51;;;;;;;9.90;4.50;;;15.20;99.90;;;;;;5131521;27;20086;-70
2022/10/23 12:12:33;;;;;;;9.52;5.25;;;15.30;99.90;;;;;;5152288;27;20521;-69
2022/10/23 12:15:27;;;;;;;6.22;4.20;;;15.30;99.90;;;;;;5154294;27;20453;-70
2022/10/23 12:17:55;;;;;;;8.13;5.13;;;15.30;99.90;;;;;;5132134;27;20050;-68
2022/10/23 12:20:35;;;;;;;7.57;4.68;;;15.30;99.90;;;;;;5153078;27;20074;-70
2022/10/23 12:23:26;;;;;;;7.43;4.57;;;15.40;99.90;;;;;;5153191;27;20035;-67
2022/10/23 12:26:21;;;;;;;8.65;4.55;;;15.40;99.90;;;;;;5152981;27;20049;-70
2022/10/23 12:28:53;;;;;;;8.88;4.00;;;15.40;99.90;;;;;;5152522;27;20046;-70
2022/10/23 12:31:31;;;;;;;8.27;3.78;;;15.40;99.90;;;;;;5152913;27;20125;-70
2022/10/23 12:34:17;;;;;;;7.15;3.88;;;15.40;99.90;;;;;;5152631;27;20042;-70
2022/10/23 12:37:13;;;;;;;6.05;3.65;;;15.40;99.90;;;;;;5154283;27;20062;-70
2022/10/23 12:39:39;;;;;;;7.15;3.92;;;15.50;99.90;;;;;;5154201;27;20114;-70
2022/10/23 12:42:26;;;;;;;7.47;3.40;;;15.50;99.90;;;;;;5153988;27;20072;-68
2022/10/23 12:45:17;;;;;;;6.32;3.90;;;15.50;99.90;;;;;;5135488;27;20038;-71
2022/10/23 12:47:47;;;;;;;6.32;4.28;;;15.50;99.90;;;;;;5154128;27;20095;-70
2022/10/23 12:50:23;;;;;;;;;;;15.60;99.90;;;;;;5153166;27;20043;-71
2022/10/23 12:53:00;;;;;;;11.10;3.47;;;15.60;99.90;;;;;;5156116;27;19914;-71
2022/10/23 12:55:30;;;;;;;9.00;4.43;;;15.60;99.90;;;;;;5157987;27;20027;-70
2022/10/23 12:57:56;;;;;;;6.95;3.33;;;15.60;99.90;;;;;;5156482;27;20035;-70
2022/10/23 13:00:23;;;;;;;8.85;3.95;;;15.60;99.90;;;;;;5139470;27;20042;-69